Time;durP1;ratioP1;P1;durP2;ratioP2;P2;SDS_P1;SDS_P2;PMS_P1;PMS_P2;Temp;Humidity;BMP_temperature;BMP_pressure;BME280_temperature;BME280_humidity;BME280_pressure;Samples;Min_cycle;Max_cycle;Signal;HPM_P1;HPM_P2
2022/12/29 00:01:58;;;;;;;0.93;0.93;;;;;;;11.24;100.00;99536.31;5024916;28;20539;-52
2022/12/29 00:04:24;;;;;;;1.30;1.20;;;;;;;11.06;100.00;99523.78;5021122;28;20452;-51
2022/12/29 00:06:52;;;;;;;0.60;0.60;;;;;;;11.09;100.00;99527.16;5027053;28;20452;-51
2022/12/29 00:09:19;;;;;;;0.80;0.53;;;;;;;11.32;100.00;99527.97;5029546;28;20472;-53
2022/12/29 00:11:45;;;;;;;0.67;0.50;;;;;;;11.24;100.00;99530.97;5025289;28;20484;-52
2022/12/29 00:16:57;;;;;;;0.77;0.60;;;;;;;11.43;100.00;99517.72;5020779;28;20456;-52
2022/12/29 00:36:24;;;;;;;4.73;0.90;;;;;;;11.28;100.00;99520.13;5022925;28;20448;-52
2022/12/29 00:44:37;;;;;;;0.67;0.43;;;;;;;11.15;100.00;99507.44;5025774;28;20443;-51
2022/12/29 00:47:04;;;;;;;2.33;0.70;;;;;;;11.12;100.00;99500.47;5045222;28;20451;-52
2022/12/29 00:49:31;;;;;;;1.30;1.20;;;;;;;11.26;100.00;99503.38;5019837;28;20819;-52
2022/12/29 00:52:03;;;;;;;0.90;0.70;;;;;;;11.42;100.00;99502.69;5027079;28;20492;-51
2022/12/29 00:54:32;;;;;;;2.03;0.70;;;;;;;11.13;100.00;99501.31;5020155;28;20449;-51
2022/12/29 00:57:00;;;;;;;0.43;0.40;;;;;;;11.26;100.00;99502.50;5023467;28;20536;-52
2022/12/29 00:59:27;;;;;;;0.50;0.37;;;;;;;11.14;100.00;99500.38;5026728;28;20504;-51
2022/12/29 01:01:54;;;;;;;1.43;0.50;;;;;;;11.21;100.00;99505.34;5022861;28;20444;-52
2022/12/29 01:04:23;;;;;;;0.40;0.30;;;;;;;11.04;100.00;99512.34;5019689;28;20959;-52
2022/12/29 01:06:49;;;;;;;0.60;0.50;;;;;;;11.17;100.00;99494.94;5025295;28;21198;-52
2022/12/29 01:12:03;;;;;;;0.50;0.40;;;;;;;11.04;100.00;99502.56;5026546;28;20531;-52
2022/12/29 01:14:30;;;;;;;0.50;0.40;;;;;;;11.10;100.00;99493.44;5020362;28;20452;-52
2022/12/29 01:16:57;;;;;;;1.10;0.80;;;;;;;11.13;100.00;99499.53;5019754;28;20475;-52
2022/12/29 01:19:24;;;;;;;1.23;1.17;;;;;;;11.24;100.00;99499.06;5025548;28;20474;-52
2022/12/29 01:21:51;;;;;;;0.70;0.63;;;;;;;11.14;100.00;99505.72;5026379;28;20447;-52
2022/12/29 01:24:18;;;;;;;4.93;1.13;;;;;;;11.15;100.00;99481.69;5020498;28;20458;-51
2022/12/29 01:26:46;;;;;;;0.60;0.40;;;;;;;11.22;100.00;99493.78;5019488;28;20540;-52
2022/12/29 01:29:12;;;;;;;0.70;0.70;;;;;;;11.21;100.00;99486.72;5024924;28;20472;-51
2022/12/29 01:31:39;;;;;;;1.33;0.40;;;;;;;11.20;100.00;99498.31;5025985;28;20484;-52
2022/12/29 01:34:06;;;;;;;1.23;0.70;;;;;;;11.22;100.00;99500.91;5021024;28;20941;-51
2022/12/29 01:36:33;;;;;;;7.73;0.37;;;;;;;11.25;100.00;99498.13;5019038;28;20817;-52
2022/12/29 01:38:59;;;;;;;2.20;0.70;;;;;;;11.27;100.00;99490.94;5032299;28;20554;-52
2022/12/29 01:41:26;;;;;;;0.87;0.67;;;;;;;11.20;100.00;99482.34;5019432;28;20448;-51
2022/12/29 01:43:59;;;;;;;0.60;0.60;;;;;;;11.20;100.00;99486.81;5024080;28;20540;-52
2022/12/29 01:46:33;;;;;;;1.20;1.10;;;;;;;11.20;100.00;99494.78;5028008;28;20523;-52
2022/12/29 01:49:04;;;;;;;0.40;0.40;;;;;;;11.28;100.00;99500.66;5021615;28;20468;-52
2022/12/29 01:51:33;;;;;;;0.80;0.60;;;;;;;11.27;100.00;99496.25;5025793;28;20552;-52
2022/12/29 01:54:04;;;;;;;0.60;0.50;;;;;;;11.25;100.00;99495.47;5019338;28;20445;-52
2022/12/29 01:56:30;;;;;;;0.50;0.40;;;;;;;11.26;100.00;99490.06;5025726;28;20445;-52
2022/12/29 01:59:04;;;;;;;0.37;0.30;;;;;;;11.35;100.00;99493.25;5025439;28;20517;-51
2022/12/29 02:01:31;;;;;;;1.43;1.13;;;;;;;11.41;100.00;99490.31;5024739;28;20452;-52
2022/12/29 02:03:58;;;;;;;2.40;0.60;;;;;;;11.27;100.00;99488.28;5025854;28;20475;-52
2022/12/29 02:07:00;;;;;;;3.17;0.70;;;;;;;11.16;100.00;99475.44;5020508;28;20463;-52
2022/12/29 02:09:27;;;;;;;0.40;0.30;;;;;;;11.12;100.00;99470.34;5022491;28;20480;-51
2022/12/29 02:11:54;;;;;;;0.73;0.40;;;;;;;11.17;100.00;99470.97;5025321;28;20492;-52
2022/12/29 02:14:20;;;;;;;0.83;0.73;;;;;;;11.17;100.00;99469.19;5028379;28;20456;-52
2022/12/29 02:17:16;;;;;;;0.40;0.40;;;;;;;11.17;100.00;99458.56;5029421;28;20458;-51
2022/12/29 02:20:27;;;;;;;2.30;0.50;;;;;;;11.32;100.00;99464.97;5027595;28;20522;-51
2022/12/29 02:23:18;;;;;;;0.40;0.30;;;;;;;11.23;100.00;99455.59;4989962;28;20445;-52
2022/12/29 02:25:44;;;;;;;0.30;0.30;;;;;;;11.27;100.00;99456.34;5023285;28;20906;-52
2022/12/29 02:28:31;;;;;;;3.17;2.87;;;;;;;11.26;100.00;99444.84;5022937;28;20458;-51
2022/12/29 02:31:50;;;;;;;0.97;0.93;;;;;;;11.20;100.00;99454.88;5025889;28;20482;-53
2022/12/29 02:34:47;;;;;;;0.60;0.60;;;;;;;11.32;100.00;99443.69;4983540;28;20459;-52
2022/12/29 02:37:22;;;;;;;0.63;0.63;;;;;;;11.37;100.00;99443.47;5033642;28;20443;-51
2022/12/29 02:39:55;;;;;;;0.40;0.40;;;;;;;11.39;100.00;99434.50;5032701;28;20491;-51
2022/12/29 02:42:51;;;;;;;0.70;0.53;;;;;;;11.39;100.00;99437.19;5026403;28;20448;-52
2022/12/29 02:45:47;;;;;;;0.57;0.57;;;;;;;11.51;100.00;99441.94;5035485;28;20426;-53
2022/12/29 02:48:21;;;;;;;1.13;0.60;;;;;;;11.63;100.00;99437.81;5023866;28;20492;-52
2022/12/29 02:50:56;;;;;;;1.67;1.57;;;;;;;11.42;100.00;99436.16;5028602;28;20442;-51
2022/12/29 02:54:40;;;;;;;0.40;0.30;;;;;;;11.26;100.00;99434.22;5028710;28;20451;-52
2022/12/29 02:56:10;;;;;;;0.50;0.43;;;;;;;11.28;100.00;99431.47;5022228;28;21019;-51
2022/12/29 02:58:36;;;;;;;3.70;0.50;;;;;;;11.31;100.00;99430.47;5025668;28;20464;-51
2022/12/29 03:01:12;;;;;;;1.63;0.80;;;;;;;11.33;100.00;99415.28;5028779;28;20539;-51
2022/12/29 03:03:52;;;;;;;0.97;0.43;;;;;;;11.27;100.00;99405.81;5026850;28;20447;-51
2022/12/29 03:06:54;;;;;;;0.57;0.57;;;;;;;11.47;100.00;99408.41;5028826;28;20445;-53
2022/12/29 03:09:31;;;;;;;1.43;1.13;;;;;;;11.43;100.00;99401.50;5028567;28;20550;-52
2022/12/29 03:12:10;;;;;;;0.63;0.63;;;;;;;11.52;100.00;99409.06;5028366;28;20491;-52
2022/12/29 03:17:46;;;;;;;0.50;0.40;;;;;;;11.40;100.00;99401.66;5028688;28;20422;-51
2022/12/29 03:20:19;;;;;;;1.10;1.00;;;;;;;11.46;100.00;99398.69;5028672;28;20438;-52
2022/12/29 03:22:50;;;;;;;0.33;0.27;;;;;;;11.59;100.00;99398.97;5023434;28;20500;-52
2022/12/29 03:25:38;;;;;;;0.67;0.57;;;;;;;11.57;100.00;99391.06;5020620;28;20463;-51
2022/12/29 03:28:09;;;;;;;0.73;0.73;;;;;;;11.60;100.00;99394.53;5023192;28;20448;-52
2022/12/29 03:30:39;;;;;;;1.20;1.10;;;;;;;11.66;100.00;99399.56;5028460;28;20830;-51
2022/12/29 03:33:10;;;;;;;0.40;0.30;;;;;;;11.61;100.00;99393.59;5028016;28;20499;-52
2022/12/29 03:35:40;;;;;;;4.00;0.77;;;;;;;11.60;100.00;99382.06;5028025;28;20455;-51
2022/12/29 03:38:18;;;;;;;0.50;0.40;;;;;;;11.84;100.00;99385.41;5029507;28;21241;-52
2022/12/29 03:40:49;;;;;;;0.60;0.60;;;;;;;11.86;100.00;99376.41;5025881;28;20518;-52
2022/12/29 03:43:17;;;;;;;3.53;0.70;;;;;;;11.70;100.00;99370.06;5028234;28;20488;-52
2022/12/29 03:45:44;;;;;;;0.50;0.40;;;;;;;11.73;100.00;99379.69;5039624;28;20450;-52
2022/12/29 03:48:10;;;;;;;10.40;1.13;;;;;;;11.75;100.00;99383.13;5032702;28;20448;-53
2022/12/29 03:50:37;;;;;;;6.27;0.97;;;;;;;11.79;100.00;99368.81;5025818;28;20482;-52
2022/12/29 03:53:03;;;;;;;0.73;0.73;;;;;;;11.73;100.00;99363.72;5023936;28;20488;-52
2022/12/29 03:55:30;;;;;;;0.80;0.70;;;;;;;11.70;100.00;99364.75;5025507;28;20483;-52
2022/12/29 03:57:56;;;;;;;1.03;0.83;;;;;;;11.70;100.00;99363.88;5020909;28;20459;-52
2022/12/29 04:00:23;;;;;;;4.63;0.90;;;;;;;11.80;100.00;99360.72;5023605;28;20469;-54
2022/12/29 04:02:49;;;;;;;1.30;0.53;;;;;;;11.95;100.00;99367.13;5027984;28;20441;-52
2022/12/29 04:05:16;;;;;;;12.00;1.70;;;;;;;11.81;100.00;99373.09;5025507;28;20455;-52
2022/12/29 04:07:43;;;;;;;1.43;0.83;;;;;;;11.80;100.00;99376.72;5026662;28;20835;-52
2022/12/29 04:10:09;;;;;;;0.50;0.40;;;;;;;12.03;100.00;99383.56;5023533;28;20473;-52
2022/12/29 04:12:35;;;;;;;0.53;0.53;;;;;;;11.95;99.59;99393.75;5027637;28;20523;-52
2022/12/29 04:15:02;;;;;;;0.50;0.47;;;;;;;11.96;100.00;99387.47;5024737;28;20447;-52
2022/12/29 04:17:29;;;;;;;0.73;0.70;;;;;;;11.86;99.91;99376.41;5020798;28;20988;-52
2022/12/29 04:20:59;;;;;;;0.60;0.53;;;;;;;12.00;99.39;99396.16;5022985;28;20873;-52
2022/12/29 04:22:42;;;;;;;1.37;1.07;;;;;;;11.97;99.27;99394.53;5026762;28;20445;-52
2022/12/29 04:25:08;;;;;;;0.77;0.77;;;;;;;11.97;99.83;99391.00;5027309;28;20451;-53
2022/12/29 04:27:35;;;;;;;5.10;0.90;;;;;;;12.11;99.82;99401.84;5021585;28;20452;-54
2022/12/29 04:30:02;;;;;;;0.40;0.40;;;;;;;12.10;99.29;99395.66;5020298;28;20832;-53
2022/12/29 04:32:28;;;;;;;1.33;0.40;;;;;;;12.01;100.00;99388.09;5025912;28;20496;-53
2022/12/29 04:34:54;;;;;;;0.40;0.30;;;;;;;11.93;100.00;99379.66;5027284;28;20451;-53
2022/12/29 04:37:21;;;;;;;0.70;0.50;;;;;;;11.88;100.00;99367.47;5021760;28;20452;-53
2022/12/29 04:39:47;;;;;;;0.40;0.30;;;;;;;11.98;100.00;99382.06;5031987;28;20528;-55
2022/12/29 04:42:14;;;;;;;0.60;0.50;;;;;;;11.96;100.00;99371.50;5021709;28;20447;-54
2022/12/29 04:44:40;;;;;;;0.50;0.40;;;;;;;11.86;100.00;99376.41;5026448;28;20451;-53
2022/12/29 04:47:10;;;;;;;0.40;0.30;;;;;;;11.74;100.00;99373.44;5027177;28;20460;-53
2022/12/29 04:49:37;;;;;;;0.37;0.30;;;;;;;11.68;100.00;99376.41;5020572;28;20478;-53
2022/12/29 04:52:03;;;;;;;1.30;0.60;;;;;;;11.86;100.00;99375.53;5027276;28;20462;-53
2022/12/29 04:54:30;;;;;;;0.97;0.70;;;;;;;11.76;100.00;99368.88;5019981;28;21004;-53
2022/12/29 04:56:56;;;;;;;0.97;0.97;;;;;;;11.75;100.00;99368.03;5023843;28;20495;-53
2022/12/29 04:59:23;;;;;;;0.60;0.53;;;;;;;11.67;100.00;99369.34;5026334;28;21005;-53
2022/12/29 05:01:49;;;;;;;2.87;0.50;;;;;;;11.68;100.00;99369.28;5023186;28;20531;-53
2022/12/29 05:04:16;;;;;;;0.60;0.40;;;;;;;11.71;100.00;99376.25;5019752;28;20459;-53
2022/12/29 05:06:42;;;;;;;0.97;0.80;;;;;;;11.66;100.00;99373.81;5025383;28;20449;-53
2022/12/29 05:09:09;;;;;;;4.13;0.60;;;;;;;11.72;100.00;99373.50;5029734;28;20473;-53
2022/12/29 05:11:35;;;;;;;0.80;0.53;;;;;;;11.70;100.00;99382.50;5023280;28;20451;-53
2022/12/29 05:14:02;;;;;;;0.50;0.30;;;;;;;11.77;100.00;99366.16;5019937;28;20458;-53
2022/12/29 05:16:28;;;;;;;1.57;1.47;;;;;;;12.00;100.00;99369.53;5022920;28;20874;-53
2022/12/29 05:18:54;;;;;;;1.13;0.40;;;;;;;11.90;100.00;99363.78;5026266;28;20598;-53
2022/12/29 05:21:21;;;;;;;6.93;1.00;;;;;;;11.84;100.00;99364.97;5023138;28;20447;-54
2022/12/29 05:23:47;;;;;;;0.53;0.47;;;;;;;11.95;100.00;99352.94;5019809;28;20443;-53
2022/12/29 05:26:14;;;;;;;0.90;0.87;;;;;;;11.80;100.00;99365.19;5022738;28;20452;-53
2022/12/29 05:28:40;;;;;;;4.23;0.60;;;;;;;11.95;100.00;99359.13;5026007;28;20476;-53
2022/12/29 05:31:07;;;;;;;0.70;0.50;;;;;;;12.03;99.85;99348.06;5023018;28;20452;-54
2022/12/29 05:33:33;;;;;;;1.50;0.73;;;;;;;12.04;99.88;99355.97;5019273;28;20503;-53
2022/12/29 05:36:07;;;;;;;0.50;0.40;;;;;;;12.09;99.19;99345.97;5022456;28;20499;-53
2022/12/29 05:38:34;;;;;;;0.50;0.40;;;;;;;12.10;98.53;99346.84;5030400;28;20490;-52
2022/12/29 05:41:01;;;;;;;0.67;0.60;;;;;;;12.13;99.39;99349.34;5021025;28;20456;-53
2022/12/29 05:43:27;;;;;;;12.20;0.87;;;;;;;12.25;99.66;99347.88;5025573;28;20456;-53
2022/12/29 05:45:54;;;;;;;0.40;0.30;;;;;;;12.15;99.38;99360.78;5039929;28;20451;-53
2022/12/29 05:48:21;;;;;;;0.40;0.40;;;;;;;12.40;99.21;99352.41;5027591;28;20518;-54
2022/12/29 05:50:49;;;;;;;1.33;1.13;;;;;;;12.29;98.99;99352.97;5024603;28;20474;-53
2022/12/29 05:53:16;;;;;;;0.40;0.37;;;;;;;12.35;98.14;99354.47;5020746;28;20523;-53
2022/12/29 05:55:45;;;;;;;0.40;0.30;;;;;;;12.31;97.54;99360.88;5025046;28;20478;-53
2022/12/29 05:58:15;;;;;;;0.50;0.40;;;;;;;12.33;98.44;99364.31;5019221;28;20447;-53
2022/12/29 06:00:42;;;;;;;0.80;0.80;;;;;;;12.23;97.88;99360.41;5019121;28;20453;-54
2022/12/29 06:03:09;;;;;;;0.57;0.50;;;;;;;12.14;99.14;99354.59;5025471;28;20454;-54
2022/12/29 06:05:35;;;;;;;7.70;0.60;;;;;;;12.22;100.00;99377.34;5025776;28;20452;-54
2022/12/29 06:08:01;;;;;;;0.53;0.53;;;;;;;12.10;100.00;99362.81;5025285;28;20455;-53
2022/12/29 06:10:28;;;;;;;0.90;0.47;;;;;;;12.20;100.00;99365.88;5018863;28;20469;-53
2022/12/29 06:12:54;;;;;;;0.43;0.30;;;;;;;12.23;99.91;99363.06;5024856;28;20488;-53
2022/12/29 06:15:21;;;;;;;0.73;0.60;;;;;;;12.27;100.00;99365.50;5025531;28;20505;-54
2022/12/29 06:17:47;;;;;;;0.67;0.50;;;;;;;12.14;100.00;99362.59;5019794;28;20941;-54
2022/12/29 06:20:14;;;;;;;0.60;0.60;;;;;;;12.10;100.00;99347.69;5018878;28;20472;-54
2022/12/29 06:22:41;;;;;;;0.40;0.30;;;;;;;12.03;100.00;99361.38;5024564;28;20449;-54
2022/12/29 06:25:08;;;;;;;0.60;0.40;;;;;;;12.14;100.00;99375.91;5025821;28;20463;-53
2022/12/29 06:27:34;;;;;;;0.50;0.50;;;;;;;12.26;100.00;99363.78;5020077;28;20447;-54
2022/12/29 06:30:06;;;;;;;1.57;0.57;;;;;;;12.10;99.99;99361.03;5018948;28;20538;-54
2022/12/29 06:32:32;;;;;;;0.80;0.63;;;;;;;12.21;99.48;99370.28;5023493;28;20495;-54
2022/12/29 06:34:59;;;;;;;5.67;1.77;;;;;;;12.19;99.39;99351.69;5025703;28;20459;-54
2022/12/29 06:37:25;;;;;;;25.77;0.90;;;;;;;12.11;99.00;99360.09;5021042;28;20455;-53
2022/12/29 06:39:52;;;;;;;2.73;1.27;;;;;;;12.33;98.26;99351.00;5029628;28;20479;-54
2022/12/29 06:42:18;;;;;;;3.23;0.40;;;;;;;12.14;98.50;99359.91;5020969;28;20447;-53
2022/12/29 06:44:44;;;;;;;4.80;0.87;;;;;;;12.17;98.07;99358.91;5025063;28;20451;-52
2022/12/29 06:47:11;;;;;;;0.40;0.30;;;;;;;12.28;97.28;99366.38;5042473;28;20967;-52
2022/12/29 06:49:38;;;;;;;6.73;1.00;;;;;;;12.32;96.81;99355.47;5018804;28;20479;-52
2022/12/29 06:52:04;;;;;;;0.70;0.70;;;;;;;12.40;96.17;99349.75;5025403;28;20526;-52
2022/12/29 06:54:38;;;;;;;0.50;0.50;;;;;;;12.38;96.61;99355.16;5018814;28;20563;-53
2022/12/29 06:57:04;;;;;;;0.97;0.40;;;;;;;12.32;97.69;99352.78;5020970;28;20532;-53
2022/12/29 06:59:31;;;;;;;1.60;1.50;;;;;;;12.15;99.06;99356.31;5026393;28;20468;-54
2022/12/29 07:01:57;;;;;;;2.23;1.37;;;;;;;12.15;98.31;99355.44;5026804;28;20456;-54
2022/12/29 07:04:24;;;;;;;0.60;0.53;;;;;;;12.16;98.50;99358.03;5022314;28;20530;-53
2022/12/29 07:06:50;;;;;;;0.87;0.50;;;;;;;12.13;98.70;99346.69;5027234;28;20498;-52
2022/12/29 07:09:17;;;;;;;0.90;0.90;;;;;;;12.32;97.90;99358.13;5030398;28;20469;-52
2022/12/29 07:11:43;;;;;;;0.60;0.60;;;;;;;12.48;97.22;99357.38;5027136;28;21034;-53
2022/12/29 07:14:11;;;;;;;1.17;0.80;;;;;;;12.46;97.47;99352.94;5021726;28;21000;-53
2022/12/29 07:16:38;;;;;;;2.80;1.13;;;;;;;12.47;97.49;99356.47;5024010;28;20452;-54
2022/12/29 07:19:04;;;;;;;0.40;0.37;;;;;;;12.30;97.21;99361.81;5029096;28;20891;-52
2022/12/29 07:21:31;;;;;;;0.60;0.60;;;;;;;12.17;98.79;99366.88;5027712;28;20856;-52
2022/12/29 07:23:57;;;;;;;0.90;0.63;;;;;;;12.10;99.11;99369.00;5021812;28;20447;-52
2022/12/29 07:26:24;;;;;;;0.53;0.50;;;;;;;12.14;99.45;99378.56;5022946;28;20452;-53
2022/12/29 07:28:50;;;;;;;0.60;0.40;;;;;;;12.23;98.94;99366.59;5028402;28;20920;-53
2022/12/29 07:31:19;;;;;;;3.13;0.70;;;;;;;12.18;98.75;99368.63;5027825;28;20451;-53
2022/12/29 07:33:47;;;;;;;7.60;0.87;;;;;;;12.05;99.69;99370.16;5021453;28;21000;-53
2022/12/29 07:36:15;;;;;;;0.80;0.60;;;;;;;12.25;99.06;99377.19;5022063;28;20451;-53
2022/12/29 07:38:42;;;;;;;2.87;0.60;;;;;;;12.23;98.95;99387.06;5032888;28;20997;-53
2022/12/29 07:41:08;;;;;;;11.00;1.00;;;;;;;12.24;98.88;99391.44;5021723;28;20452;-53
2022/12/29 07:43:35;;;;;;;0.50;0.50;;;;;;;12.25;99.52;99393.16;5021903;28;20456;-53
2022/12/29 07:46:02;;;;;;;1.00;0.50;;;;;;;12.14;100.00;99394.56;5048101;28;20823;-53
2022/12/29 07:48:28;;;;;;;4.53;0.97;;;;;;;12.07;100.00;99384.28;5028148;28;20549;-53
2022/12/29 07:50:55;;;;;;;1.37;1.27;;;;;;;12.18;100.00;99383.75;5028321;28;20896;-55
2022/12/29 07:53:22;;;;;;;0.70;0.60;;;;;;;12.12;100.00;99392.91;5021651;28;20488;-52
2022/12/29 07:55:49;;;;;;;1.33;1.23;;;;;;;12.19;100.00;99393.44;5027986;28;20452;-53
2022/12/29 07:58:15;;;;;;;7.60;0.90;;;;;;;12.05;100.00;99389.66;5021870;28;20472;-52
2022/12/29 08:00:42;;;;;;;0.70;0.47;;;;;;;12.04;100.00;99389.75;5021214;28;20452;-53
2022/12/29 08:03:08;;;;;;;1.07;0.73;;;;;;;12.04;100.00;99395.94;5027447;28;20507;-52
2022/12/29 08:05:34;;;;;;;1.00;0.90;;;;;;;12.04;100.00;99395.06;5027739;28;20444;-54
2022/12/29 08:08:01;;;;;;;1.40;0.93;;;;;;;11.99;100.00;99397.13;5027049;28;20448;-53
2022/12/29 08:10:27;;;;;;;0.80;0.80;;;;;;;12.07;100.00;99400.28;5020567;28;20465;-53
2022/12/29 08:12:54;;;;;;;1.90;0.50;;;;;;;12.18;100.00;99405.91;5026971;28;20495;-53
2022/12/29 08:15:20;;;;;;;0.70;0.70;;;;;;;12.21;100.00;99402.25;5027667;28;20546;-53
2022/12/29 08:17:52;;;;;;;0.63;0.57;;;;;;;12.22;100.00;99403.97;5022147;28;20444;-53
2022/12/29 08:20:18;;;;;;;1.13;1.13;;;;;;;12.21;100.00;99413.78;5020857;28;20468;-53
2022/12/29 08:22:45;;;;;;;0.77;0.57;;;;;;;12.18;99.58;99402.38;5026338;28;20868;-53
2022/12/29 08:25:11;;;;;;;0.57;0.57;;;;;;;12.27;99.94;99404.59;5027580;28;21019;-52
2022/12/29 08:27:38;;;;;;;0.50;0.47;;;;;;;12.27;100.00;99404.59;5004687;28;20848;-53
2022/12/29 08:30:05;;;;;;;1.73;1.63;;;;;;;12.41;99.14;99404.78;5020742;28;20551;-53
2022/12/29 08:32:31;;;;;;;1.13;0.90;;;;;;;12.59;97.96;99411.84;5025984;28;20456;-53
2022/12/29 08:34:58;;;;;;;0.50;0.50;;;;;;;12.53;97.89;99421.97;5027336;28;20452;-53
2022/12/29 08:37:24;;;;;;;0.80;0.40;;;;;;;12.57;97.24;99429.72;5021601;28;20456;-52
2022/12/29 08:39:57;;;;;;;0.80;0.60;;;;;;;12.51;97.77;99432.72;5031526;28;20483;-53
2022/12/29 08:42:28;;;;;;;0.80;0.80;;;;;;;12.48;98.45;99430.19;5022822;28;20495;-53
2022/12/29 08:44:55;;;;;;;0.90;0.63;;;;;;;12.50;98.45;99435.44;5028560;28;20936;-53
2022/12/29 08:47:21;;;;;;;0.83;0.80;;;;;;;12.42;98.92;99436.69;5042908;28;20462;-53
2022/12/29 08:49:47;;;;;;;4.47;0.67;;;;;;;12.50;99.66;99428.31;5020185;28;20870;-53
2022/12/29 08:52:14;;;;;;;0.50;0.40;;;;;;;12.45;100.00;99441.00;5027334;28;20543;-53
2022/12/29 08:54:40;;;;;;;0.60;0.50;;;;;;;12.46;100.00;99434.72;5020352;28;20497;-54
2022/12/29 08:57:07;;;;;;;1.10;1.00;;;;;;;12.40;100.00;99430.56;5022618;28;20463;-53
2022/12/29 08:59:34;;;;;;;0.90;0.70;;;;;;;12.11;100.00;99429.34;5026566;28;20469;-53
2022/12/29 09:02:01;;;;;;;0.90;0.77;;;;;;;11.97;100.00;99446.94;5024670;28;20447;-53
2022/12/29 09:04:28;;;;;;;0.80;0.50;;;;;;;12.04;100.00;99438.56;5019862;28;20444;-52
2022/12/29 09:06:54;;;;;;;0.50;0.50;;;;;;;12.05;100.00;99434.94;5025183;28;20453;-53
2022/12/29 09:09:21;;;;;;;0.70;0.50;;;;;;;11.73;100.00;99449.78;5028549;28;20473;-53
2022/12/29 09:11:47;;;;;;;0.70;0.70;;;;;;;11.82;100.00;99453.84;5025011;28;20953;-53
2022/12/29 09:14:14;;;;;;;1.07;0.97;;;;;;;11.91;100.00;99453.38;5019807;28;20521;-53
2022/12/29 09:19:25;;;;;;;1.90;1.17;;;;;;;11.64;100.00;99460.84;5033100;28;20475;-53
2022/12/29 09:21:52;;;;;;;0.83;0.83;;;;;;;11.36;100.00;99463.91;5019674;28;20954;-53
2022/12/29 09:24:18;;;;;;;0.80;0.67;;;;;;;11.54;100.00;99468.41;5024682;28;20448;-53
2022/12/29 09:26:45;;;;;;;0.60;0.40;;;;;;;11.39;100.00;99471.78;5026541;28;20451;-53
2022/12/29 09:29:12;;;;;;;2.83;1.47;;;;;;;11.53;100.00;99476.47;5021070;28;20522;-53
2022/12/29 09:31:39;;;;;;;1.30;1.20;;;;;;;11.54;100.00;99481.72;5019127;28;20831;-53
2022/12/29 09:34:05;;;;;;;4.13;0.93;;;;;;;11.53;100.00;99509.28;5025197;28;20492;-53
2022/12/29 09:36:31;;;;;;;1.33;1.17;;;;;;;11.56;100.00;99509.13;5026541;28;20466;-53
2022/12/29 09:38:58;;;;;;;0.63;0.63;;;;;;;11.35;100.00;99511.88;5032712;28;20480;-53
2022/12/29 09:41:31;;;;;;;3.20;0.70;;;;;;;11.52;100.00;99502.22;5019396;28;20449;-53
2022/12/29 09:44:25;;;;;;;2.30;0.80;;;;;;;11.40;100.00;99500.09;5024615;28;20527;-53
2022/12/29 09:46:55;;;;;;;0.40;0.40;;;;;;;11.32;100.00;99509.34;5020810;28;20455;-52
2022/12/29 09:49:33;;;;;;;1.40;0.50;;;;;;;11.42;100.00;99500.03;5019422;28;20495;-53
2022/12/29 09:52:05;;;;;;;0.50;0.40;;;;;;;11.47;100.00;99490.03;5026465;28;20515;-52
2022/12/29 09:54:45;;;;;;;0.33;0.23;;;;;;;11.48;100.00;99495.28;5018747;28;20488;-54
2022/12/29 09:57:27;;;;;;;0.40;0.30;;;;;;;11.42;100.00;99484.94;5019652;28;20451;-53
2022/12/29 10:00:04;;;;;;;0.30;0.20;;;;;;;11.38;100.00;99490.47;5018094;28;20976;-52
2022/12/29 10:03:01;;;;;;;1.80;0.33;;;;;;;11.33;100.00;99505.75;5018910;28;20934;-53
2022/12/29 10:05:28;;;;;;;0.40;0.20;;;;;;;11.40;100.00;99499.25;5009281;28;20826;-52
2022/12/29 10:08:16;;;;;;;0.50;0.40;;;;;;;11.49;100.00;99502.34;5032059;28;20455;-53
2022/12/29 10:10:55;;;;;;;0.60;0.40;;;;;;;11.50;100.00;99500.53;5018847;28;21187;-54
2022/12/29 10:13:32;;;;;;;0.40;0.30;;;;;;;11.83;100.00;99508.84;5021086;28;20492;-53
2022/12/29 10:16:17;;;;;;;0.40;0.30;;;;;;;11.77;100.00;99493.94;5025840;28;20444;-54
2022/12/29 10:18:50;;;;;;;0.40;0.30;;;;;;;11.89;100.00;99489.88;5025832;28;20463;-53
2022/12/29 10:21:37;;;;;;;0.97;0.70;;;;;;;11.88;100.00;99500.63;5022011;28;20454;-53
2022/12/29 10:24:08;;;;;;;0.43;0.40;;;;;;;11.79;100.00;99508.13;5019237;28;20869;-53
2022/12/29 10:26:40;;;;;;;1.07;0.50;;;;;;;11.99;100.00;99509.84;5019264;28;20453;-53
2022/12/29 10:29:20;;;;;;;0.50;0.40;;;;;;;11.90;100.00;99504.94;5019423;28;20471;-54
2022/12/29 10:31:56;;;;;;;0.80;0.70;;;;;;;11.74;100.00;99499.44;5018690;28;20506;-53
2022/12/29 10:34:33;;;;;;;1.47;0.37;;;;;;;11.92;100.00;99500.38;5022773;28;20851;-53
2022/12/29 10:37:35;;;;;;;0.50;0.30;;;;;;;12.07;100.00;99510.34;5033550;28;20529;-53
2022/12/29 10:40:15;;;;;;;0.50;0.40;;;;;;;12.22;100.00;99507.91;5022268;28;20498;-54
2022/12/29 10:42:50;;;;;;;0.40;0.30;;;;;;;12.35;100.00;99501.03;5028323;28;20439;-54
2022/12/29 10:45:18;;;;;;;0.40;0.40;;;;;;;12.58;100.00;99508.75;5043111;28;20460;-54
2022/12/29 10:48:15;;;;;;;0.97;0.80;;;;;;;12.62;100.00;99499.69;5041303;28;20452;-54
2022/12/29 10:50:42;;;;;;;0.40;0.40;;;;;;;12.63;100.00;99520.06;5027089;28;20447;-54
2022/12/29 10:53:19;;;;;;;6.37;1.10;;;;;;;12.48;99.31;99515.50;5028504;28;20448;-54
2022/12/29 10:55:46;;;;;;;0.40;0.30;;;;;;;12.54;100.00;99517.84;5023360;28;20472;-53
2022/12/29 10:58:14;;;;;;;0.50;0.30;;;;;;;12.54;100.00;99533.84;5029331;28;20452;-54
2022/12/29 11:00:42;;;;;;;9.43;0.70;;;;;;;12.53;99.93;99529.47;5028934;28;20451;-54
2022/12/29 11:03:30;;;;;;;0.63;0.50;;;;;;;12.50;99.86;99537.59;5028922;28;20431;-54
2022/12/29 11:06:06;;;;;;;0.50;0.50;;;;;;;12.53;100.00;99537.44;5029689;28;20503;-54
2022/12/29 11:08:37;;;;;;;0.60;0.40;;;;;;;12.67;99.86;99539.44;5032839;28;20443;-54
2022/12/29 11:11:06;;;;;;;6.23;0.70;;;;;;;12.51;99.95;99536.66;5022591;28;20447;-54
2022/12/29 11:13:45;;;;;;;0.60;0.30;;;;;;;12.61;98.46;99529.97;5023244;28;20471;-54
2022/12/29 11:16:12;;;;;;;0.83;0.30;;;;;;;12.65;98.66;99531.53;4998838;28;20444;-54
2022/12/29 11:18:42;;;;;;;0.90;0.50;;;;;;;12.74;99.25;99535.53;5028902;28;20988;-53
2022/12/29 11:21:31;;;;;;;1.70;0.40;;;;;;;12.84;98.24;99525.25;5023864;28;20452;-53
2022/12/29 11:24:00;;;;;;;0.40;0.30;;;;;;;12.95;98.63;99523.78;5022623;28;20450;-57
2022/12/29 11:26:28;;;;;;;0.40;0.27;;;;;;;13.10;99.21;99522.16;5023755;28;20522;-57
2022/12/29 11:29:26;;;;;;;0.80;0.40;;;;;;;12.96;97.77;99538.84;5028572;28;20468;-57
2022/12/29 11:31:58;;;;;;;0.30;0.30;;;;;;;13.11;97.58;99536.34;5028461;28;20447;-56
2022/12/29 11:34:31;;;;;;;4.40;0.30;;;;;;;13.29;96.49;99530.09;5025297;28;20497;-57
2022/12/29 11:37:20;;;;;;;0.50;0.40;;;;;;;13.29;96.05;99541.66;5022140;28;20526;-57
2022/12/29 11:39:59;;;;;;;6.93;0.80;;;;;;;13.03;95.57;99540.28;5020097;28;20489;-57
2022/12/29 11:42:40;;;;;;;0.70;0.67;;;;;;;13.10;95.70;99542.63;5024691;28;20443;-57
2022/12/29 11:45:12;;;;;;;3.70;0.67;;;;;;;13.18;95.47;99543.09;5031134;28;20413;-57
2022/12/29 11:47:38;;;;;;;0.40;0.30;;;;;;;13.09;95.91;99539.09;5040608;28;20940;-57
2022/12/29 11:50:07;;;;;;;0.50;0.50;;;;;;;12.97;96.71;99548.56;5021444;28;20479;-57
2022/12/29 11:52:39;;;;;;;0.67;0.60;;;;;;;13.04;95.53;99534.00;5028241;28;20502;-57
2022/12/29 11:55:18;;;;;;;1.00;0.50;;;;;;;13.16;96.73;99548.53;5014891;28;20492;-57
2022/12/29 11:57:45;;;;;;;0.30;0.20;;;;;;;13.24;95.59;99533.00;5027858;28;20941;-57
2022/12/29 12:00:19;;;;;;;0.60;0.57;;;;;;;13.15;95.78;99545.91;5024084;28;20844;-57
2022/12/29 12:03:24;;;;;;;0.50;0.40;;;;;;;13.12;95.38;99543.41;5021185;28;20530;-57
2022/12/29 12:05:56;;;;;;;0.40;0.40;;;;;;;13.06;95.16;99531.25;4984114;28;20484;-57
2022/12/29 12:08:35;;;;;;;0.40;0.20;;;;;;;13.28;95.42;99541.72;5034302;28;20429;-57
2022/12/29 12:11:22;;;;;;;0.40;0.37;;;;;;;13.31;97.21;99542.44;5003678;28;20528;-57
2022/12/29 12:14:02;;;;;;;0.60;0.40;;;;;;;13.20;98.76;99533.25;5020999;28;20505;-57
2022/12/29 12:16:40;;;;;;;0.60;0.33;;;;;;;13.20;98.81;99530.59;5024656;28;20487;-56
2022/12/29 12:19:34;;;;;;;0.70;0.63;;;;;;;13.26;98.70;99532.91;5027437;28;20464;-56